Time;durP1;ratioP1;P1;durP2;ratioP2;P2;SDS_P1;SDS_P2;PMS_P1;PMS_P2;Temp;Humidity;BMP_temperature;BMP_pressure;BME280_temperature;BME280_humidity;BME280_pressure;Samples;Min_cycle;Max_cycle;Signal;HPM_P1;HPM_P2
2021/12/15 00:01:31;;;;;;;;;;;23.80;36.20;;;;;;5095987;28;19962;-79
2021/12/15 00:03:56;;;;;;;;;;;23.90;36.30;;;;;;5077831;28;19908;-81
2021/12/15 00:06:22;;;;;;;;;;;23.90;36.30;;;;;;5077141;28;19915;-77
2021/12/15 00:08:51;;;;;;;;;;;23.80;36.30;;;;;;5095557;28;19908;-81
2021/12/15 00:11:16;;;;;;;;;;;23.90;36.30;;;;;;5095585;28;20367;-80
2021/12/15 00:13:42;;;;;;;;;;;23.90;36.30;;;;;;5095539;28;19995;-81
2021/12/15 00:16:08;;;;;;;;;;;23.80;36.30;;;;;;5077923;28;19955;-76
2021/12/15 00:18:33;;;;;;;;;;;23.80;36.30;;;;;;5095925;28;20003;-78
2021/12/15 00:20:59;;;;;;;;;;;23.80;36.30;;;;;;5095606;28;19908;-78
2021/12/15 00:23:24;;;;;;;;;;;23.80;36.30;;;;;;5095508;28;19927;-78
2021/12/15 00:25:50;;;;;;;;;;;23.80;36.30;;;;;;5095250;28;19959;-78
2021/12/15 00:28:16;;;;;;;;;;;23.80;36.30;;;;;;5077643;28;19986;-78
2021/12/15 00:30:41;;;;;;;;;;;23.80;36.30;;;;;;5077536;28;19908;-79
2021/12/15 00:33:07;;;;;;;;;;;23.80;36.30;;;;;;5095358;28;19908;-78
2021/12/15 00:35:32;;;;;;;;;;;23.80;36.30;;;;;;5095290;28;20337;-77
2021/12/15 00:38:00;;;;;;;;;;;23.80;36.30;;;;;;5095269;28;19912;-77
2021/12/15 00:40:26;;;;;;;;;;;23.80;36.40;;;;;;5095461;28;19908;-78
2021/12/15 00:42:52;;;;;;;;;;;23.80;36.40;;;;;;5094987;28;20222;-79
2021/12/15 00:45:20;;;;;;;;;;;23.80;36.40;;;;;;5097836;28;19927;-79
2021/12/15 00:47:46;;;;;;;;;;;23.80;36.40;;;;;;5098079;28;19912;-79
2021/12/15 00:50:11;;;;;;;;;;;23.70;36.40;;;;;;5080851;28;19908;-78
2021/12/15 00:52:37;;;;;;;;;;;23.80;36.40;;;;;;5115472;28;19908;-76
2021/12/15 00:55:04;;;;;;;;;;;23.80;36.50;;;;;;5115417;28;19912;-77
2021/12/15 00:57:31;;;;;;;;;;;23.70;36.40;;;;;;5097486;28;19987;-81
2021/12/15 01:00:02;;;;;;;;;;;23.80;36.50;;;;;;5115606;28;19919;-82
2021/12/15 01:02:27;;;;;;;;;;;23.70;36.50;;;;;;5115377;28;19908;-78
2021/12/15 01:04:58;;;;;;;;;;;23.70;36.50;;;;;;5097628;28;20015;-80
2021/12/15 01:07:23;;;;;;;;;;;23.70;36.50;;;;;;5115441;28;19918;-79
2021/12/15 01:09:52;;;;;;;;;;;23.70;36.50;;;;;;5115304;28;20006;-80
2021/12/15 01:20:23;;;;;;;;;;;23.80;36.50;;;;;;5119507;28;19918;-82
2021/12/15 01:22:49;;;;;;;;;;;23.70;36.50;;;;;;5119383;28;20329;-79
2021/12/15 01:25:18;;;;;;;;;;;23.70;36.50;;;;;;5119257;28;19911;-82
2021/12/15 01:27:43;;;;;;;;;;;23.70;36.60;;;;;;5119272;28;19915;-79
2021/12/15 01:30:10;;;;;;;;;;;23.70;36.50;;;;;;5101321;28;19908;-82
2021/12/15 01:32:35;;;;;;;;;;;23.70;36.50;;;;;;5084205;28;20359;-79
2021/12/15 01:35:01;;;;;;;;;;;23.70;36.50;;;;;;5119169;28;19907;-82
2021/12/15 01:37:29;;;;;;;;;;;23.70;36.50;;;;;;5123116;28;19910;-77
2021/12/15 01:39:55;;;;;;;;;;;23.70;36.60;;;;;;5121772;28;19919;-80
2021/12/15 01:42:23;;;;;;;;;;;23.70;36.60;;;;;;5120620;28;19915;-79
2021/12/15 01:47:33;;;;;;;;;;;23.70;36.60;;;;;;5120184;28;19915;-80
2021/12/15 01:49:58;;;;;;;;;;;23.70;36.60;;;;;;5100959;28;19908;-80
2021/12/15 01:52:24;;;;;;;;;;;23.70;36.60;;;;;;5100974;28;19935;-78
2021/12/15 01:54:51;;;;;;;;;;;23.70;37.20;;;;;;5118740;28;19965;-80
2021/12/15 01:57:19;;;;;;;;;;;23.70;36.70;;;;;;5118566;28;19918;-77
2021/12/15 01:59:45;;;;;;;;;;;23.70;36.60;;;;;;5100899;28;19908;-83
2021/12/15 02:02:10;;;;;;;;;;;23.70;36.90;;;;;;5118492;28;20319;-81
2021/12/15 02:04:39;;;;;;;;;;;23.70;36.70;;;;;;5118489;28;19923;-77
2021/12/15 02:07:05;;;;;;;;;;;23.70;36.70;;;;;;5118455;28;19919;-79
2021/12/15 02:12:09;;;;;;;;;;;23.70;36.70;;;;;;5102570;28;20243;-81
2021/12/15 02:14:37;;;;;;;;;;;23.70;36.70;;;;;;5118447;28;19930;-78
2021/12/15 02:17:04;;;;;;;;;;;23.70;36.70;;;;;;5100504;28;19908;-80
2021/12/15 02:19:32;;;;;;;;;;;23.70;36.70;;;;;;5118368;28;19912;-78
2021/12/15 02:21:59;;;;;;;;;;;23.70;36.70;;;;;;5118455;28;19918;-81
2021/12/15 02:24:24;;;;;;;;;;;23.70;36.70;;;;;;5118069;28;19911;-79
2021/12/15 02:26:58;;;;;;;;;;;23.60;36.70;;;;;;5118193;28;19908;-78
2021/12/15 02:29:29;;;;;;;;;;;23.70;36.70;;;;;;5100510;28;19908;-79
2021/12/15 02:37:34;;;;;;;;;;;23.60;36.80;;;;;;5050777;28;19909;-77
2021/12/15 02:40:04;;;;;;;;;;;23.60;36.80;;;;;;5109901;28;19907;-77
2021/12/15 02:42:31;;;;;;;;;;;23.60;36.80;;;;;;5123573;28;20011;-75
2021/12/15 02:44:57;;;;;;;;;;;23.60;36.80;;;;;;5124928;28;20344;-77
2021/12/15 02:47:26;;;;;;;;;;;23.60;36.80;;;;;;5103846;28;19961;-77
2021/12/15 02:49:54;;;;;;;;;;;23.60;36.80;;;;;;5104583;28;19911;-77
2021/12/15 02:52:20;;;;;;;;;;;23.60;36.80;;;;;;5124483;28;19907;-75
2021/12/15 02:54:46;;;;;;;;;;;23.70;36.80;;;;;;5123983;28;20221;-79
2021/12/15 02:57:14;;;;;;;;;;;23.70;36.80;;;;;;5105223;28;19912;-80
2021/12/15 03:00:01;;;;;;;;;;;23.60;36.80;;;;;;5106264;28;20485;-79
2021/12/15 03:07:40;;;;;;;;;;;23.60;36.90;;;;;;5123505;28;19947;-80
2021/12/15 03:15:36;;;;;;;;;;;23.60;36.90;;;;;;5121022;28;20359;-78
2021/12/15 03:18:10;;;;;;;;;;;23.60;36.90;;;;;;5100245;28;19931;-80
2021/12/15 03:20:45;;;;;;;;;;;23.60;36.90;;;;;;5134099;27;20271;-80
2021/12/15 03:23:11;;;;;;;;;;;23.60;36.90;;;;;;5117640;28;19908;-80
2021/12/15 03:25:41;;;;;;;;;;;23.60;36.90;;;;;;5082750;28;19956;-79
2021/12/15 03:33:57;;;;;;;;;;;23.60;36.90;;;;;;5101625;28;19958;-79
2021/12/15 03:36:51;;;;;;;;;;;23.60;37.00;;;;;;5100966;28;19939;-81
2021/12/15 03:39:20;;;;;;;;;;;23.60;36.90;;;;;;5116661;28;20400;-79
2021/12/15 03:41:53;;;;;;;;;;;23.60;37.00;;;;;;5098959;28;19912;-82
2021/12/15 03:44:18;;;;;;;;;;;23.50;36.90;;;;;;5116382;28;19946;-80
2021/12/15 03:46:44;;;;;;;;;;;23.60;37.00;;;;;;5116597;28;20396;-79
2021/12/15 03:49:09;;;;;;;;;;;23.50;37.60;;;;;;5098615;28;19908;-82
2021/12/15 03:51:37;;;;;;;;;;;23.50;37.00;;;;;;5116519;28;20276;-78
2021/12/15 03:54:03;;;;;;;;;;;23.50;37.00;;;;;;5099019;28;19933;-80
2021/12/15 03:56:28;;;;;;;;;;;23.60;37.00;;;;;;5098705;28;19908;-77
2021/12/15 03:58:57;;;;;;;;;;;23.60;37.00;;;;;;5081928;28;19966;-77
2021/12/15 04:01:23;;;;;;;;;;;23.50;37.00;;;;;;5116110;28;20264;-78
2021/12/15 04:03:52;;;;;;;;;;;23.60;37.00;;;;;;5116282;28;19918;-79
2021/12/15 04:06:19;;;;;;;;;;;23.60;37.00;;;;;;5098264;28;20259;-79
2021/12/15 04:08:45;;;;;;;;;;;23.60;37.00;;;;;;5081515;28;19994;-78
2021/12/15 04:11:11;;;;;;;;;;;23.60;37.00;;;;;;5116564;28;19996;-77
2021/12/15 04:13:37;;;;;;;;;;;23.50;37.00;;;;;;5117918;28;19915;-77
2021/12/15 04:16:08;;;;;;;;;;;23.50;37.00;;;;;;5118530;28;19933;-75
2021/12/15 04:18:35;;;;;;;;;;;23.50;37.00;;;;;;5124305;28;19908;-77
2021/12/15 04:21:03;;;;;;;;;;;23.50;37.00;;;;;;5086091;28;19969;-80
2021/12/15 04:23:28;;;;;;;;;;;23.60;37.10;;;;;;5117262;28;19929;-79
2021/12/15 04:25:54;;;;;;;;;;;23.50;37.00;;;;;;5116883;28;20300;-81
2021/12/15 04:28:26;;;;;;;;;;;23.50;37.10;;;;;;5098902;28;19919;-79
2021/12/15 04:30:55;;;;;;;;;;;23.50;37.00;;;;;;5100778;28;19991;-79
2021/12/15 04:33:25;;;;;;;;;;;23.50;37.10;;;;;;5116018;28;19915;-80
2021/12/15 04:35:53;;;;;;;;;;;23.50;37.10;;;;;;5097893;28;19918;-79
2021/12/15 04:38:19;;;;;;;;;;;23.50;37.10;;;;;;5098252;28;19919;-78
2021/12/15 04:40:45;;;;;;;;;;;23.50;37.10;;;;;;5097797;28;19912;-80
2021/12/15 04:43:11;;;;;;;;;;;23.50;37.10;;;;;;5097442;28;20002;-78
2021/12/15 04:45:39;;;;;;;;;;;23.50;37.10;;;;;;5097933;28;19916;-78
2021/12/15 04:48:05;;;;;;;;;;;23.50;37.10;;;;;;5097747;28;19947;-78
2021/12/15 04:50:31;;;;;;;;;;;23.50;37.10;;;;;;5115757;28;19919;-80
2021/12/15 04:53:02;;;;;;;;;;;23.50;37.10;;;;;;5080794;28;19992;-79
2021/12/15 04:55:30;;;;;;;;;;;23.50;37.10;;;;;;5115657;28;19908;-77
2021/12/15 04:57:57;;;;;;;;;;;23.50;37.10;;;;;;5115449;28;19971;-80
2021/12/15 05:00:23;;;;;;;;;;;23.50;37.10;;;;;;5115570;28;19965;-79
2021/12/15 05:02:52;;;;;;;;;;;23.50;37.10;;;;;;5080932;28;19908;-79
2021/12/15 05:05:18;;;;;;;;;;;23.50;37.20;;;;;;5115420;28;19912;-79
2021/12/15 05:07:44;;;;;;;;;;;23.50;37.20;;;;;;5115495;28;19933;-79
2021/12/15 05:10:11;;;;;;;;;;;23.50;37.20;;;;;;5115220;28;19968;-79
2021/12/15 05:12:36;;;;;;;;;;;23.50;37.20;;;;;;5115270;28;20328;-79
2021/12/15 05:15:03;;;;;;;;;;;23.40;37.20;;;;;;5097741;28;19918;-78
2021/12/15 05:17:31;;;;;;;;;;;23.50;37.20;;;;;;5115449;28;19908;-78
2021/12/15 05:20:00;;;;;;;;;;;23.50;37.20;;;;;;5097330;28;19908;-77
2021/12/15 05:22:28;;;;;;;;;;;23.40;37.10;;;;;;5115602;28;19997;-82
2021/12/15 05:24:54;;;;;;;;;;;23.50;37.20;;;;;;5097416;28;20005;-82
2021/12/15 05:27:19;;;;;;;;;;;23.50;37.80;;;;;;5115423;28;20339;-81
2021/12/15 05:29:45;;;;;;;;;;;23.50;37.20;;;;;;5115455;28;19908;-80
2021/12/15 05:32:17;;;;;;;;;;;23.40;37.20;;;;;;5097292;28;19916;-79
2021/12/15 05:34:42;;;;;;;;;;;23.40;37.20;;;;;;5098329;28;19978;-79
2021/12/15 05:37:08;;;;;;;;;;;23.50;37.20;;;;;;5115181;28;20359;-82
2021/12/15 05:39:33;;;;;;;;;;;23.50;37.30;;;;;;5115360;28;19918;-81
2021/12/15 05:42:01;;;;;;;;;;;23.50;37.30;;;;;;5115181;28;19908;-78
2021/12/15 05:44:27;;;;;;;;;;;23.40;37.20;;;;;;5097137;28;20345;-78
2021/12/15 05:46:53;;;;;;;;;;;23.40;37.20;;;;;;5080525;28;19994;-78
2021/12/15 05:49:19;;;;;;;;;;;23.40;37.20;;;;;;5080724;28;20019;-79
2021/12/15 05:51:44;;;;;;;;;;;23.40;37.30;;;;;;5115082;28;19969;-79
2021/12/15 05:54:10;;;;;;;;;;;23.40;37.30;;;;;;5097645;28;19907;-79
2021/12/15 05:56:38;;;;;;;;;;;23.40;37.30;;;;;;5097976;28;19912;-78
2021/12/15 05:59:06;;;;;;;;;;;23.40;37.30;;;;;;5114846;28;20016;-77
2021/12/15 06:01:36;;;;;;;;;;;23.40;37.30;;;;;;5114957;28;19918;-80
2021/12/15 06:04:06;;;;;;;;;;;23.40;37.30;;;;;;5081834;28;19965;-79
2021/12/15 06:06:31;;;;;;;;;;;23.40;37.30;;;;;;5101737;28;19908;-77
2021/12/15 06:08:57;;;;;;;;;;;23.40;37.30;;;;;;5083760;28;20308;-77
2021/12/15 06:11:24;;;;;;;;;;;23.40;37.30;;;;;;5118832;28;19965;-79
2021/12/15 06:13:50;;;;;;;;;;;19.20;35.30;;;;;;5100841;28;19958;-77
2021/12/15 06:16:17;;;;;;;;;;;13.70;46.40;;;;;;5118432;28;19912;-77
2021/12/15 06:18:43;;;;;;;;;;;11.00;53.50;;;;;;5126452;27;19911;-79
2021/12/15 06:21:08;;;;;;;;;;;10.10;56.70;;;;;;5119945;27;19930;-77
2021/12/15 06:23:34;;;;;;;;;;;9.00;60.40;;;;;;5118471;28;19916;-80
2021/12/15 06:26:02;;;;;;;;;;;8.90;63.90;;;;;;5106594;27;19915;-81
2021/12/15 06:28:31;;;;;;;;;;;11.40;61.30;;;;;;5121026;27;19935;-77
2021/12/15 06:30:57;;;;;;;;;;;13.80;54.70;;;;;;5104379;27;20291;-80
2021/12/15 06:33:22;;;;;;;;;;;15.70;49.70;;;;;;5139116;27;19907;-82
2021/12/15 06:35:57;;;;;;;;;;;17.20;46.30;;;;;;5122255;27;19931;-78
2021/12/15 06:38:30;;;;;;;;;;;18.30;44.10;;;;;;5101098;27;19907;-79
2021/12/15 06:40:57;;;;;;;;;;;19.20;42.50;;;;;;5138779;27;19923;-78
2021/12/15 06:43:25;;;;;;;;;;;19.90;42.00;;;;;;5107448;27;20244;-78
2021/12/15 06:57:34;;;;;;;;;;;21.70;38.40;;;;;;5106656;27;19917;-78
2021/12/15 07:00:00;;;;;;;;;;;21.90;38.10;;;;;;5125984;27;19907;-79
2021/12/15 07:02:28;;;;;;;;;;;22.10;37.80;;;;;;5140530;27;19911;-77
2021/12/15 07:04:53;;;;;;;;;;;22.20;37.90;;;;;;5122911;27;20306;-80
2021/12/15 07:07:21;;;;;;;;;;;22.40;38.00;;;;;;5141514;27;19922;-77
2021/12/15 07:09:49;;;;;;;;;;;22.50;37.80;;;;;;5140490;27;19907;-78
2021/12/15 07:12:14;;;;;;;;;;;22.50;37.80;;;;;;5109050;28;19908;-78
2021/12/15 07:14:42;;;;;;;;;;;22.70;38.00;;;;;;5120007;28;19908;-78
2021/12/15 07:17:14;;;;;;;;;;;22.80;44.20;;;;;;5102743;28;19907;-80
2021/12/15 07:22:36;;;;;;;;;;;23.00;49.70;;;;;;5091603;28;19919;-78
2021/12/15 07:25:03;;;;;;;;;;;23.10;49.80;;;;;;5102526;28;19911;-79
2021/12/15 07:27:28;;;;;;;;;;;22.80;45.50;;;;;;5118232;28;19907;-81
2021/12/15 07:29:54;;;;;;;;;;;21.00;46.50;;;;;;5118408;28;19998;-77
2021/12/15 07:32:19;;;;;;;;;;;20.00;48.70;;;;;;5083258;28;19907;-79
2021/12/15 07:34:47;;;;;;;;;;;19.30;50.90;;;;;;5100232;28;19919;-77
2021/12/15 07:37:13;;;;;;;;;;;19.10;50.60;;;;;;5117741;28;20020;-79
2021/12/15 07:39:43;;;;;;;;;;;18.90;49.70;;;;;;5100053;28;19915;-78
2021/12/15 07:42:11;;;;;;;;;;;18.90;50.30;;;;;;5117259;28;19962;-77
2021/12/15 07:44:37;;;;;;;;;;;18.60;50.30;;;;;;5117195;28;19949;-77
2021/12/15 07:47:05;;;;;;;;;;;18.60;50.10;;;;;;5117522;28;19912;-79
2021/12/15 07:49:31;;;;;;;;;;;18.80;50.50;;;;;;5099696;28;19998;-78
2021/12/15 07:52:01;;;;;;;;;;;18.90;49.80;;;;;;5117261;28;20363;-80
2021/12/15 07:54:27;;;;;;;;;;;18.90;50.10;;;;;;5100020;28;19908;-78
2021/12/15 07:56:53;;;;;;;;;;;18.80;49.60;;;;;;5082804;28;19919;-77
2021/12/15 07:59:18;;;;;;;;;;;18.80;49.60;;;;;;5117411;28;19907;-78
2021/12/15 08:01:51;;;;;;;;;;;18.90;49.00;;;;;;5099207;28;19908;-79
2021/12/15 08:04:17;;;;;;;;;;;19.10;48.90;;;;;;5116933;28;20006;-79
2021/12/15 08:06:45;;;;;;;;;;;19.00;48.10;;;;;;5117088;28;20375;-79
2021/12/15 08:09:11;;;;;;;;;;;18.90;48.50;;;;;;5099098;28;19908;-78
2021/12/15 08:11:37;;;;;;;;;;;19.00;48.10;;;;;;5082247;28;19923;-76
2021/12/15 08:14:02;;;;;;;;;;;18.80;48.10;;;;;;5116828;28;19908;-80
2021/12/15 08:16:30;;;;;;;;;;;18.80;48.20;;;;;;5116941;28;19951;-78
2021/12/15 08:18:56;;;;;;;;;;;18.90;47.40;;;;;;5116617;28;19912;-77
2021/12/15 08:21:21;;;;;;;;;;;19.00;47.50;;;;;;5099137;28;20003;-79
2021/12/15 08:23:49;;;;;;;;;;;19.00;46.10;;;;;;5116896;28;19908;-77
2021/12/15 08:26:17;;;;;;;;;;;18.80;46.10;;;;;;5098705;28;19981;-78
2021/12/15 08:28:48;;;;;;;;;;;18.90;45.90;;;;;;5082092;28;19911;-79
2021/12/15 08:31:15;;;;;;;;;;;18.70;45.00;;;;;;5116784;28;19908;-75
2021/12/15 08:33:46;;;;;;;;;;;18.60;45.70;;;;;;5099453;28;19919;-82
2021/12/15 08:36:14;;;;;;;;;;;18.60;45.40;;;;;;5099715;28;19919;-77
2021/12/15 08:38:42;;;;;;;;;;;18.70;45.30;;;;;;5116690;28;19908;-78
2021/12/15 08:41:11;;;;;;;;;;;18.50;45.00;;;;;;5082162;28;19908;-79
2021/12/15 08:43:37;;;;;;;;;;;18.50;44.80;;;;;;5116362;28;19927;-77
2021/12/15 08:46:12;;;;;;;;;;;18.30;44.70;;;;;;5098131;28;20270;-80
2021/12/15 08:48:38;;;;;;;;;;;18.30;44.40;;;;;;5116531;28;19919;-78
2021/12/15 08:51:04;;;;;;;;;;;18.20;44.30;;;;;;5098904;28;19912;-76
2021/12/15 08:53:29;;;;;;;;;;;18.20;44.80;;;;;;5098195;28;19908;-78
2021/12/15 08:55:55;;;;;;;;;;;18.20;44.40;;;;;;5098840;28;19943;-80
2021/12/15 08:58:23;;;;;;;;;;;18.30;44.40;;;;;;5116738;28;19937;-77
2021/12/15 09:00:52;;;;;;;;;;;18.40;43.80;;;;;;5099145;28;19932;-78
2021/12/15 09:03:17;;;;;;;;;;;18.30;43.90;;;;;;5099133;28;19919;-79
2021/12/15 09:05:45;;;;;;;;;;;18.10;43.40;;;;;;5116463;28;19912;-76
2021/12/15 09:08:13;;;;;;;;;;;18.10;44.10;;;;;;5099431;28;19907;-80
2021/12/15 09:10:40;;;;;;;;;;;17.90;44.10;;;;;;5117488;28;19918;-80
2021/12/15 09:13:07;;;;;;;;;;;17.90;44.10;;;;;;5116952;28;20344;-76
2021/12/15 09:15:32;;;;;;;;;;;18.10;43.60;;;;;;5116873;28;19907;-78
2021/12/15 09:17:58;;;;;;;;;;;18.20;43.40;;;;;;5116317;28;19918;-77
2021/12/15 09:20:25;;;;;;;;;;;18.30;43.00;;;;;;5099144;28;19947;-78
2021/12/15 09:22:52;;;;;;;;;;;18.50;42.50;;;;;;5120600;28;19970;-77
2021/12/15 09:25:18;;;;;;;;;;;18.50;42.20;;;;;;5118045;28;19943;-79
2021/12/15 09:27:44;;;;;;;;;;;18.60;41.80;;;;;;5081457;28;20257;-78
2021/12/15 09:30:11;;;;;;;;;;;18.70;41.90;;;;;;5115868;28;20336;-79
2021/12/15 09:32:36;;;;;;;;;;;18.80;41.40;;;;;;5097906;28;20376;-75
2021/12/15 09:35:02;;;;;;;;;;;18.70;41.10;;;;;;5116176;28;19908;-79
2021/12/15 09:37:30;;;;;;;;;;;18.70;42.40;;;;;;5116578;28;19923;-81
2021/12/15 09:39:58;;;;;;;;;;;18.80;43.50;;;;;;5120002;28;19908;-79
2021/12/15 09:42:34;;;;;;;;;;;18.40;43.50;;;;;;5085646;28;20048;-79
2021/12/15 09:45:15;;;;;;;;;;;18.10;45.50;;;;;;5119748;28;19927;-80
2021/12/15 09:47:58;;;;;;;;;;;18.50;45.20;;;;;;5120007;28;19912;-78
2021/12/15 10:04:24;;;;;;;;;;;17.70;46.10;;;;;;5119382;28;19942;-78
2021/12/15 10:07:15;;;;;;;;;;;17.90;45.90;;;;;;5104697;28;19915;-77
2021/12/15 10:18:02;;;;;;;;;;;17.80;43.30;;;;;;5119342;28;19990;-78
2021/12/15 10:20:28;;;;;;;;;;;17.70;43.30;;;;;;5119295;28;19915;-76
2021/12/15 10:22:59;;;;;;;;;;;17.70;43.10;;;;;;5101307;28;19907;-77
2021/12/15 10:25:32;;;;;;;;;;;17.80;43.10;;;;;;5119159;28;19966;-77
2021/12/15 10:28:11;;;;;;;;;;;17.70;42.90;;;;;;5119338;28;19908;-78
2021/12/15 10:30:41;;;;;;;;;;;18.00;42.30;;;;;;5119361;28;19912;-78
2021/12/15 10:33:07;;;;;;;;;;;18.20;42.10;;;;;;5119150;28;19912;-77
2021/12/15 10:35:37;;;;;;;;;;;18.10;42.00;;;;;;5118979;28;19919;-78
2021/12/15 10:38:08;;;;;;;;;;;18.50;41.60;;;;;;5119847;28;19918;-75
2021/12/15 10:40:41;;;;;;;;;;;18.40;41.00;;;;;;5121476;28;19908;-76
2021/12/15 10:43:07;;;;;;;;;;;18.60;41.50;;;;;;5122232;28;19908;-76
2021/12/15 10:45:34;;;;;;;;;;;19.00;40.80;;;;;;5123361;28;20043;-78
2021/12/15 10:48:01;;;;;;;;;;;19.40;39.80;;;;;;5087457;28;20020;-77
2021/12/15 10:50:26;;;;;;;;;;;19.70;39.60;;;;;;5119992;28;19923;-77
2021/12/15 10:52:57;;;;;;;;;;;19.80;38.50;;;;;;5122130;28;19908;-77
2021/12/15 10:55:30;;;;;;;;;;;19.70;38.90;;;;;;5122453;28;20272;-76
2021/12/15 10:57:55;;;;;;;;;;;19.80;38.60;;;;;;5106563;28;19908;-75
2021/12/15 11:00:22;;;;;;;;;;;19.70;38.30;;;;;;5121796;28;20015;-76
2021/12/15 11:02:50;;;;;;;;;;;19.60;39.00;;;;;;5103404;28;19908;-79
2021/12/15 11:05:20;;;;;;;;;;;19.70;38.30;;;;;;5100784;28;20018;-77
2021/12/15 11:07:46;;;;;;;;;;;20.10;38.40;;;;;;5100634;28;19908;-77
2021/12/15 11:10:20;;;;;;;;;;;20.10;38.00;;;;;;5100903;28;19924;-79
2021/12/15 11:12:45;;;;;;;;;;;20.10;37.60;;;;;;5118536;28;19943;-80
2021/12/15 11:15:15;;;;;;;;;;;20.20;37.80;;;;;;5118293;28;19908;-79
2021/12/15 11:17:45;;;;;;;;;;;19.80;38.40;;;;;;5134465;27;19948;-78
2021/12/15 11:20:36;;;;;;;;;;;20.00;38.00;;;;;;5084030;28;19908;-76
2021/12/15 11:23:08;;;;;;;;;;;20.00;38.00;;;;;;5117047;28;19947;-77
2021/12/15 11:25:34;;;;;;;;;;;20.10;37.90;;;;;;5101240;28;20252;-76
2021/12/15 11:28:13;;;;;;;;;;;19.70;37.60;;;;;;5119885;28;19978;-75
2021/12/15 11:30:38;;;;;;;;;;;19.00;38.60;;;;;;5118196;28;19908;-76
2021/12/15 11:33:08;;;;;;;;;;;18.80;39.60;;;;;;5117855;28;20245;-79
2021/12/15 11:35:41;;;;;;;;;;;18.70;39.20;;;;;;5100014;28;19908;-79
2021/12/15 11:38:13;;;;;;;;;;;18.00;41.90;;;;;;5100077;28;19911;-79
2021/12/15 11:40:42;;;;;;;;;;;18.00;43.50;;;;;;5100056;28;19933;-76
2021/12/15 11:43:08;;;;;;;;;;;18.20;44.50;;;;;;5117522;28;19914;-77
2021/12/15 11:45:36;;;;;;;;;;;18.10;42.40;;;;;;5100271;28;19916;-76
2021/12/15 11:48:11;;;;;;;;;;;18.20;46.50;;;;;;5100082;28;20218;-78
2021/12/15 11:50:40;;;;;;;;;;;19.20;44.20;;;;;;5117556;28;19912;-78
2021/12/15 11:53:06;;;;;;;;;;;20.30;42.00;;;;;;5100007;28;19969;-78
2021/12/15 11:55:33;;;;;;;;;;;20.90;40.50;;;;;;5082656;28;19911;-76
2021/12/15 11:58:02;;;;;;;;;;;20.00;39.60;;;;;;5117125;28;19950;-80
2021/12/15 12:00:29;;;;;;;;;;;19.60;42.50;;;;;;5082629;28;20332;-77
2021/12/15 12:02:59;;;;;;;;;;;20.20;41.30;;;;;;5116761;28;19971;-76
2021/12/15 12:05:29;;;;;;;;;;;19.90;40.70;;;;;;5082499;28;19923;-78
2021/12/15 12:07:57;;;;;;;;;;;19.60;41.10;;;;;;5117155;28;19915;-78
2021/12/15 12:10:25;;;;;;;;;;;19.90;42.70;;;;;;5099498;28;19945;-76
2021/12/15 12:12:55;;;;;;;;;;;20.50;41.80;;;;;;5116968;28;19908;-77
2021/12/15 12:15:24;;;;;;;;;;;21.20;40.70;;;;;;5117003;28;19957;-78
2021/12/15 12:17:50;;;;;;;;;;;21.50;39.90;;;;;;5099205;28;19908;-77
2021/12/15 12:20:16;;;;;;;;;;;21.50;39.00;;;;;;5099408;28;20394;-78
2021/12/15 12:22:43;;;;;;;;;;;21.50;38.70;;;;;;5117274;28;19908;-78
2021/12/15 12:25:14;;;;;;;;;;;21.40;39.20;;;;;;5116593;28;20229;-78
2021/12/15 12:27:39;;;;;;;;;;;21.50;39.30;;;;;;5116761;28;19919;-78
2021/12/15 12:30:09;;;;;;;;;;;21.40;39.30;;;;;;5099266;28;19918;-78
2021/12/15 12:32:37;;;;;;;;;;;21.50;39.10;;;;;;5098947;28;19994;-78
2021/12/15 12:35:05;;;;;;;;;;;21.20;37.00;;;;;;5116878;28;19907;-77
2021/12/15 12:37:33;;;;;;;;;;;21.00;38.90;;;;;;5098467;28;20015;-75
2021/12/15 12:40:04;;;;;;;;;;;21.20;38.90;;;;;;5098533;28;20323;-77
2021/12/15 12:42:31;;;;;;;;;;;21.50;38.80;;;;;;5099818;28;19934;-77
2021/12/15 12:45:09;;;;;;;;;;;21.70;38.10;;;;;;5098782;28;19968;-75
2021/12/15 12:47:44;;;;;;;;;;;21.80;36.50;;;;;;5116459;28;20252;-76
2021/12/15 13:01:12;;;;;;;;;;;19.10;41.60;;;;;;5116530;28;19914;-76
2021/12/15 13:03:48;;;;;;;;;;;18.80;40.50;;;;;;5116401;28;19908;-77
2021/12/15 13:06:42;;;;;;;;;;;18.50;41.50;;;;;;5099246;28;19911;-77
2021/12/15 13:09:10;;;;;;;;;;;18.40;42.30;;;;;;5113267;28;19908;-77
2021/12/15 13:11:38;;;;;;;;;;;18.20;43.00;;;;;;5116311;28;19908;-76
2021/12/15 13:14:05;;;;;;;;;;;18.40;42.10;;;;;;5120015;28;19908;-79
2021/12/15 13:16:30;;;;;;;;;;;18.30;42.10;;;;;;5087034;28;19911;-77
2021/12/15 13:19:16;;;;;;;;;;;18.30;42.40;;;;;;5107560;28;19923;-76
2021/12/15 13:21:59;;;;;;;;;;;18.50;44.80;;;;;;5123338;28;20428;-77
2021/12/15 13:30:34;;;;;;;;;;;18.80;40.50;;;;;;5120263;28;20014;-79
2021/12/15 13:33:06;;;;;;;;;;;18.30;42.00;;;;;;5120003;28;20240;-78
2021/12/15 13:35:36;;;;;;;;;;;18.60;42.80;;;;;;5103322;28;19908;-77
2021/12/15 13:38:04;;;;;;;;;;;18.70;42.70;;;;;;5119892;28;19908;-76
2021/12/15 13:40:59;;;;;;;;;;;18.70;41.60;;;;;;5120531;28;19908;-77
2021/12/15 13:43:51;;;;;;;;;;;18.60;42.00;;;;;;5117686;28;19994;-76
2021/12/15 13:46:23;;;;;;;;;;;18.60;42.40;;;;;;5115794;28;19920;-76
2021/12/15 13:49:03;;;;;;;;;;;18.80;42.80;;;;;;5103300;28;19919;-78
2021/12/15 13:51:50;;;;;;;;;;;19.10;41.10;;;;;;5101906;28;19918;-75
2021/12/15 13:54:33;;;;;;;;;;;19.10;41.10;;;;;;5119988;28;19908;-78
2021/12/15 13:57:01;;;;;;;;;;;19.10;41.80;;;;;;5102162;28;19919;-76
2021/12/15 13:59:28;;;;;;;;;;;19.50;41.40;;;;;;5102122;28;19912;-77
2021/12/15 14:02:09;;;;;;;;;;;19.80;40.70;;;;;;5101403;28;19908;-76
2021/12/15 14:04:45;;;;;;;;;;;19.70;39.80;;;;;;5101379;28;19908;-77
2021/12/15 14:07:33;;;;;;;;;;;19.80;40.70;;;;;;5119540;28;20225;-76
2021/12/15 14:09:59;;;;;;;;;;;19.40;40.00;;;;;;5102043;28;19915;-76
2021/12/15 14:12:44;;;;;;;;;;;18.90;41.40;;;;;;5101443;28;20026;-74
2021/12/15 14:15:13;;;;;;;;;;;19.10;40.80;;;;;;5119168;28;19915;-77
2021/12/15 14:17:39;;;;;;;;;;;18.70;41.30;;;;;;5119119;28;19998;-77
2021/12/15 14:20:11;;;;;;;;;;;19.10;41.90;;;;;;5101177;28;20355;-78
2021/12/15 14:22:37;;;;;;;;;;;19.30;41.20;;;;;;5119235;28;19954;-76
2021/12/15 14:25:03;;;;;;;;;;;19.90;40.70;;;;;;5100076;28;19955;-76
2021/12/15 14:27:31;;;;;;;;;;;20.20;40.10;;;;;;5101201;28;19935;-75
2021/12/15 14:29:57;;;;;;;;;;;20.20;39.70;;;;;;5118817;28;20280;-77
2021/12/15 14:32:29;;;;;;;;;;;20.00;39.00;;;;;;5118985;28;19907;-77
2021/12/15 14:34:54;;;;;;;;;;;19.20;39.60;;;;;;5118947;28;19908;-77
2021/12/15 14:37:23;;;;;;;;;;;19.70;41.60;;;;;;5118839;28;19908;-77
2021/12/15 14:39:53;;;;;;;;;;;19.80;40.00;;;;;;5101514;28;19908;-77
2021/12/15 14:42:21;;;;;;;;;;;20.50;40.10;;;;;;5101308;28;19908;-76
2021/12/15 14:44:48;;;;;;;;;;;20.40;39.30;;;;;;5118731;28;19923;-75
2021/12/15 14:47:15;;;;;;;;;;;20.70;39.90;;;;;;5101208;28;19919;-75
2021/12/15 14:49:52;;;;;;;;;;;21.00;39.60;;;;;;5119032;28;20004;-77
2021/12/15 14:52:25;;;;;;;;;;;20.50;39.10;;;;;;5118778;28;19908;-79
2021/12/15 14:54:51;;;;;;;;;;;19.90;39.70;;;;;;5083595;28;19908;-77
2021/12/15 14:57:18;;;;;;;;;;;19.60;40.60;;;;;;5118398;28;20271;-77
2021/12/15 14:59:47;;;;;;;;;;;19.80;41.30;;;;;;5102158;28;19908;-76
2021/12/15 15:02:13;;;;;;;;;;;20.10;40.70;;;;;;5122064;28;19907;-77
2021/12/15 15:04:39;;;;;;;;;;;20.20;40.60;;;;;;5121610;28;19911;-78
2021/12/15 15:07:08;;;;;;;;;;;20.20;40.10;;;;;;5121357;28;20031;-78
2021/12/15 15:09:37;;;;;;;;;;;20.20;39.90;;;;;;5101612;28;19908;-76
2021/12/15 15:12:02;;;;;;;;;;;20.30;39.60;;;;;;5118487;28;20329;-76
2021/12/15 15:14:34;;;;;;;;;;;19.70;40.60;;;;;;5118311;28;19930;-76
2021/12/15 15:16:59;;;;;;;;;;;19.60;40.70;;;;;;5100361;28;19907;-77
2021/12/15 15:19:25;;;;;;;;;;;19.50;41.30;;;;;;5083708;28;19918;-77
2021/12/15 15:21:53;;;;;;;;;;;19.60;41.70;;;;;;5100406;28;19951;-77
2021/12/15 15:24:25;;;;;;;;;;;19.80;40.50;;;;;;5118831;28;19995;-77
2021/12/15 15:27:00;;;;;;;;;;;20.00;41.50;;;;;;5118927;28;19908;-78
2021/12/15 15:29:45;;;;;;;;;;;20.30;40.50;;;;;;5118524;28;19908;-76
2021/12/15 15:32:14;;;;;;;;;;;20.30;40.30;;;;;;5117750;28;19908;-78
2021/12/15 15:34:39;;;;;;;;;;;20.50;39.70;;;;;;5099872;28;19914;-77
2021/12/15 15:37:11;;;;;;;;;;;20.60;40.10;;;;;;5117167;28;19908;-75
2021/12/15 15:39:37;;;;;;;;;;;20.70;39.50;;;;;;5099758;28;19916;-77
2021/12/15 15:42:03;;;;;;;;;;;20.60;39.40;;;;;;5117289;28;19977;-75
2021/12/15 15:44:33;;;;;;;;;;;20.80;39.60;;;;;;5082098;28;20311;-77
2021/12/15 15:46:58;;;;;;;;;;;21.10;39.10;;;;;;5117367;28;19972;-77
2021/12/15 15:49:24;;;;;;;;;;;21.00;39.40;;;;;;5117487;28;19916;-76
2021/12/15 15:51:51;;;;;;;;;;;21.30;39.20;;;;;;5117080;28;19912;-77
2021/12/15 15:54:20;;;;;;;;;;;21.40;39.10;;;;;;5082431;28;20221;-78